createdAt,value
2019-03-31T00:02:59.580Z,59.57
2019-03-31T00:08:01.720Z,58.67
2019-03-31T00:13:03.932Z,59.20
2019-03-31T00:18:07.126Z,64.93
2019-03-31T00:23:09.487Z,66.37
2019-03-31T00:28:11.740Z,69.83
2019-03-31T00:33:13.978Z,68.73
2019-03-31T00:38:16.282Z,67.47
2019-03-31T00:43:18.464Z,69.80
2019-03-31T00:48:20.723Z,74.03
2019-03-31T00:53:22.948Z,75.10
2019-03-31T00:58:25.588Z,77.90
2019-03-31T01:03:28.141Z,79.27
2019-03-31T01:08:31.090Z,81.93
2019-03-31T01:13:33.268Z,81.40
2019-03-31T01:18:35.436Z,85.70
2019-03-31T01:23:37.699Z,83.50
2019-03-31T01:28:39.837Z,82.77
2019-03-31T01:33:42.156Z,87.47
2019-03-31T01:38:44.432Z,85.60
2019-03-31T01:43:46.599Z,87.17
2019-03-31T01:48:49.881Z,86.23
2019-03-31T01:53:52.216Z,86.60
2019-03-31T01:58:54.417Z,85.70
2019-03-31T02:03:56.545Z,87.47
2019-03-31T02:08:59.205Z,88.47
2019-03-31T02:14:01.371Z,89.87
2019-03-31T02:19:03.641Z,89.77
2019-03-31T02:24:06.292Z,86.53
2019-03-31T02:29:08.469Z,84.33
2019-03-31T02:34:10.649Z,79.13
2019-03-31T02:39:12.903Z,76.27
2019-03-31T02:44:15.094Z,76.83
2019-03-31T02:49:17.223Z,67.50
2019-03-31T02:54:20.930Z,64.43
2019-03-31T02:59:23.183Z,60.50
2019-03-31T03:04:25.455Z,59.93
2019-03-31T03:09:27.712Z,58.07
2019-03-31T03:14:32.431Z,54.93
2019-03-31T03:19:34.553Z,50.53
2019-03-31T03:24:36.727Z,48.63
2019-03-31T03:29:38.918Z,52.27
2019-03-31T03:34:41.392Z,48.67
2019-03-31T03:39:43.684Z,48.77
2019-03-31T03:44:47.026Z,46.03
2019-03-31T03:49:49.183Z,43.67
2019-03-31T03:54:51.454Z,44.40
2019-03-31T03:59:54.065Z,42.93
2019-03-31T04:04:56.791Z,42.17
2019-03-31T04:10:00.428Z,43.20
2019-03-31T04:15:02.721Z,43.70
2019-03-31T04:20:05.433Z,42.73
2019-03-31T04:25:07.597Z,43.63
2019-03-31T04:30:09.762Z,43.40
2019-03-31T04:35:12.367Z,41.13
2019-03-31T04:40:14.576Z,41.90
2019-03-31T04:45:16.806Z,41.23
2019-03-31T04:50:18.927Z,38.37
2019-03-31T04:55:21.070Z,40.00
2019-03-31T05:00:23.276Z,37.47
2019-03-31T05:05:25.511Z,36.53
2019-03-31T05:10:27.658Z,37.17
2019-03-31T05:15:29.856Z,35.37
2019-03-31T05:20:32.123Z,35.30
2019-03-31T05:25:34.280Z,35.57
2019-03-31T05:30:36.564Z,32.80
2019-03-31T05:35:38.785Z,33.53
2019-03-31T05:40:41.059Z,28.53
2019-03-31T05:45:43.569Z,28.53
2019-03-31T05:50:46.096Z,28.27
2019-03-31T05:55:48.254Z,30.83
2019-03-31T06:00:50.904Z,29.40
2019-03-31T06:05:54.469Z,29.53
2019-03-31T06:10:56.618Z,29.37
2019-03-31T06:15:58.793Z,30.63
2019-03-31T06:21:00.999Z,28.93
2019-03-31T06:26:03.162Z,29.93
2019-03-31T06:31:05.430Z,26.30
2019-03-31T06:36:12.456Z,24.10
2019-03-31T06:41:14.701Z,24.70
2019-03-31T06:46:16.842Z,26.50
2019-03-31T06:51:19.232Z,23.57
2019-03-31T06:56:21.396Z,22.53
2019-03-31T07:01:24.411Z,22.17
2019-03-31T07:06:26.601Z,20.70
2019-03-31T07:11:28.820Z,19.67
2019-03-31T07:16:31.444Z,19.03
2019-03-31T07:21:33.671Z,18.13
2019-03-31T07:26:37.745Z,19.07
2019-03-31T07:31:39.915Z,17.43
2019-03-31T07:36:42.158Z,18.10
2019-03-31T07:41:45.553Z,17.07
2019-03-31T07:46:47.773Z,17.30
2019-03-31T07:51:50.186Z,16.50
2019-03-31T07:56:53.160Z,15.57
2019-03-31T08:01:56.106Z,15.80
2019-03-31T08:06:58.307Z,15.37
2019-03-31T08:12:00.955Z,16.07
2019-03-31T08:17:03.276Z,14.83
2019-03-31T08:22:05.580Z,14.23
2019-03-31T08:27:07.775Z,13.57
2019-03-31T08:32:10.110Z,14.33
2019-03-31T08:37:12.413Z,15.53
2019-03-31T08:42:14.581Z,14.77
2019-03-31T08:47:17.239Z,14.90
2019-03-31T08:52:19.420Z,14.73
2019-03-31T08:57:21.616Z,15.07
2019-03-31T09:02:24.122Z,15.53
2019-03-31T09:07:26.311Z,13.60
2019-03-31T09:12:28.429Z,13.37
2019-03-31T09:17:30.658Z,13.20
2019-03-31T09:22:33.054Z,11.57
2019-03-31T09:27:35.299Z,9.30
2019-03-31T09:32:37.617Z,10.17
2019-03-31T09:37:39.763Z,9.33
2019-03-31T09:42:41.903Z,9.70
2019-03-31T09:47:44.210Z,9.90
2019-03-31T09:52:46.428Z,8.60
2019-03-31T09:57:48.551Z,8.10
2019-03-31T10:02:50.748Z,7.63
2019-03-31T10:07:53.318Z,6.77
2019-03-31T10:12:55.494Z,8.27
2019-03-31T10:17:57.628Z,7.27
2019-03-31T10:22:59.844Z,6.87
2019-03-31T10:28:02.140Z,6.43
2019-03-31T10:33:04.489Z,6.83
2019-03-31T10:38:07.027Z,5.73
2019-03-31T10:43:09.207Z,5.77
2019-03-31T10:48:20.373Z,4.90
2019-03-31T10:53:15.377Z,5.30
2019-03-31T10:58:17.525Z,5.47
2019-03-31T11:03:19.678Z,5.60
2019-03-31T11:08:21.881Z,5.13
2019-03-31T11:13:24.772Z,4.27
2019-03-31T11:18:26.911Z,3.40
2019-03-31T11:23:29.040Z,3.63
2019-03-31T11:28:31.623Z,3.50
2019-03-31T11:33:33.940Z,3.40
2019-03-31T11:38:36.169Z,3.13
2019-03-31T11:43:38.431Z,3.00
2019-03-31T11:48:40.596Z,2.70
2019-03-31T11:53:42.779Z,3.80
2019-03-31T11:58:44.876Z,2.87
2019-03-31T12:03:47.233Z,2.90
2019-03-31T12:08:49.383Z,2.90
2019-03-31T12:13:51.545Z,3.40
2019-03-31T12:18:53.764Z,2.70
2019-03-31T12:23:55.929Z,3.30
2019-03-31T12:28:58.234Z,3.40
2019-03-31T12:34:00.528Z,3.40
2019-03-31T12:39:04.410Z,3.47
2019-03-31T12:44:07.046Z,3.45
2019-03-31T12:49:09.259Z,2.73
2019-03-31T12:54:11.394Z,2.85
2019-03-31T12:59:13.569Z,3.27
2019-03-31T13:04:16.160Z,2.80
2019-03-31T13:09:18.840Z,2.90
2019-03-31T13:14:21.010Z,3.33
2019-03-31T13:19:23.782Z,2.90
2019-03-31T13:24:25.964Z,2.72
2019-03-31T13:29:28.141Z,2.87
2019-03-31T13:34:30.393Z,2.47
2019-03-31T13:39:32.634Z,2.67
2019-03-31T13:44:35.188Z,2.67
2019-03-31T13:49:37.689Z,2.75
2019-03-31T13:54:39.829Z,4.33
2019-03-31T13:59:41.988Z,3.45
2019-03-31T14:04:54.502Z,3.05
2019-03-31T14:09:56.649Z,2.55
2019-03-31T14:14:58.795Z,2.77
2019-03-31T14:20:01.003Z,2.75
2019-03-31T14:25:03.697Z,2.33
2019-03-31T14:30:05.888Z,2.55
2019-03-31T14:35:08.068Z,2.80
2019-03-31T14:40:10.724Z,2.40
2019-03-31T14:45:27.108Z,3.05
2019-03-31T14:50:38.919Z,2.30
2019-03-31T14:55:41.071Z,2.47
2019-03-31T15:00:43.194Z,2.10
2019-03-31T15:05:45.428Z,2.75
2019-03-31T15:10:51.834Z,2.77
2019-03-31T15:15:53.980Z,2.87
2019-03-31T15:20:56.170Z,2.98
2019-03-31T15:25:58.497Z,2.62
2019-03-31T15:31:00.683Z,2.40
2019-03-31T15:36:02.831Z,2.33
2019-03-31T15:41:04.996Z,3.30
2019-03-31T15:46:07.486Z,2.58
2019-03-31T15:51:09.716Z,2.40
2019-03-31T15:56:11.859Z,2.50
2019-03-31T16:01:15.465Z,2.65
2019-03-31T16:06:17.735Z,2.72
2019-03-31T16:11:19.348Z,2.67
2019-03-31T16:16:20.972Z,2.70
2019-03-31T16:21:22.583Z,2.50
2019-03-31T16:26:24.157Z,2.83
2019-03-31T16:31:25.797Z,2.50
2019-03-31T16:36:27.459Z,2.90
2019-03-31T16:41:29.073Z,2.80
2019-03-31T16:46:30.681Z,2.97
2019-03-31T16:51:32.336Z,3.00
2019-03-31T16:56:34.947Z,3.00
2019-03-31T17:01:36.638Z,2.97
2019-03-31T17:06:38.299Z,3.17
2019-03-31T17:11:40.025Z,2.57
2019-03-31T17:16:41.720Z,3.03
2019-03-31T17:21:43.351Z,2.80
2019-03-31T17:26:44.925Z,2.60
2019-03-31T17:31:47.279Z,2.30
2019-03-31T17:36:49.173Z,2.57
2019-03-31T17:41:50.781Z,2.90
2019-03-31T17:46:52.808Z,2.50
2019-03-31T17:51:54.869Z,2.93
2019-03-31T17:56:56.445Z,2.30
2019-03-31T18:01:58.446Z,2.50
2019-03-31T18:07:00.042Z,2.90
2019-03-31T18:12:01.668Z,2.30
2019-03-31T18:17:03.268Z,2.40
2019-03-31T18:22:15.828Z,2.40
2019-03-31T18:27:09.003Z,2.47
2019-03-31T18:32:10.551Z,2.63
2019-03-31T18:37:12.228Z,2.30
2019-03-31T18:42:13.898Z,2.70
2019-03-31T18:47:15.632Z,2.40
2019-03-31T18:52:18.014Z,2.60
2019-03-31T18:57:19.865Z,2.00
2019-03-31T19:02:24.825Z,2.70
2019-03-31T19:07:25.064Z,2.77
2019-03-31T19:12:26.597Z,2.43
2019-03-31T19:17:28.211Z,2.33
2019-03-31T19:22:30.021Z,2.10
2019-03-31T19:27:32.661Z,2.53
2019-03-31T19:32:34.383Z,2.33
2019-03-31T19:37:36.070Z,3.13
2019-03-31T19:42:37.729Z,2.57
2019-03-31T19:47:39.384Z,2.10
2019-03-31T19:52:42.037Z,2.23
2019-03-31T19:57:43.903Z,2.67
2019-03-31T20:02:46.078Z,2.57
2019-03-31T20:07:48.057Z,2.40
2019-03-31T20:12:49.760Z,2.40
2019-03-31T20:17:51.353Z,2.50
2019-03-31T20:22:53.304Z,2.87
2019-03-31T20:27:54.973Z,3.37
2019-03-31T20:32:56.681Z,2.83
2019-03-31T20:37:58.246Z,2.67
2019-03-31T20:42:59.860Z,2.83
2019-03-31T20:48:01.528Z,2.70
2019-03-31T20:53:03.434Z,2.43
2019-03-31T20:58:05.026Z,2.90
2019-03-31T21:03:06.729Z,4.40
2019-03-31T21:08:08.362Z,2.60
2019-03-31T21:13:09.970Z,3.73
2019-03-31T21:18:11.599Z,2.90
2019-03-31T21:23:13.263Z,3.83
2019-03-31T21:28:14.903Z,2.80
2019-03-31T21:33:16.608Z,2.73
2019-03-31T21:38:18.621Z,2.77
2019-03-31T21:43:20.556Z,2.93
2019-03-31T21:48:22.116Z,3.10
2019-03-31T21:53:23.770Z,2.67
2019-03-31T21:58:25.401Z,2.60
2019-03-31T22:03:27.006Z,3.17
2019-03-31T22:08:28.660Z,2.63
2019-03-31T22:13:30.470Z,2.90
2019-03-31T22:18:32.108Z,2.60
2019-03-31T22:23:33.884Z,2.10
2019-03-31T22:28:35.740Z,3.10
2019-03-31T22:33:37.428Z,2.57
2019-03-31T22:38:39.364Z,3.17
2019-03-31T22:43:41.076Z,2.90
2019-03-31T22:48:43.064Z,2.67
2019-03-31T22:53:44.704Z,2.50
2019-03-31T22:58:46.298Z,2.50
2019-03-31T23:03:47.884Z,2.80
2019-03-31T23:08:49.486Z,2.43
2019-03-31T23:13:51.126Z,3.10
2019-03-31T23:18:52.735Z,2.67
2019-03-31T23:23:54.330Z,3.03
2019-03-31T23:28:56.628Z,2.67
2019-03-31T23:33:58.314Z,3.17
2019-03-31T23:39:00.024Z,3.70
2019-03-31T23:44:01.697Z,2.30
2019-03-31T23:49:03.383Z,3.00
2019-03-31T23:54:04.995Z,2.57
2019-03-31T23:59:06.641Z,2.50
